Darstellungsparameter: Aktuell verwendete Einstellungen:
Skalierung der Graphiken ... ?
xyx+y,   Skalierungsfaktor:      Skalierung: Modus: x, Faktor: 1
Darstellungszeitraum ... ?
Vom - - bis: - -   Zeitraum: 14.09.2010 - 15.09.2010
Min/Max/Avg-Anzeige ... ?
Zeige MMA aktuell
Zeige MMA Monat
Zeige MMA alles
Zeige --A aktuell
Zeige --A Monat
Zeige --A alles
Keine MMA-Anzeige
MMA:
Average (ber die Originaldaten)
MMA-Basis: 23.02.2003 - 30.09.2020
Quicknavigation für Darstellung... ?
Tage:      1T, 2T, 3T, 5T -1T -2T -3T -5T +1T +2T +3T +5T
Wochen: 1W, 2W, 3W -1W -2W -3W +1W +2W +3W
Monate: 1M, 3M, 6M -1M -3M -6M +1M +3M +6M
Jahre:    1J, 3J, 5J, 10J -1J -3J -5J -10J +1J +3J +5J +10J
Nutze für die Darstellung ... ?
Originaldaten oder Mittelwerte auf ...
Stundenbasis Tagesbasis Wochenbasis
Monatsbasis Jahresbasis      Datenbasis: Original-Daten
Darstellen als:
Statistik (Auto) Statistik J:M      Darstellung:
Zur Graphik,    zurück zur Übersicht aller Sensoren.
 
Tabellarische Datenbersicht: ?
 
Sensor: Nr:Datum:Temp:Abs-Feuchte:Windchill:Wind:
Aussen-T/F 1 14-09-2010 00:11:05 13 C 8.96 g/m*3 13 C 0 km/h
2 14-09-2010 00:23:05 12.8 C 9.18 g/m*3 12.8 C 0 km/h
3 14-09-2010 00:35:05 12.8 C 9.3 g/m*3 12.8 C 0 km/h
4 14-09-2010 00:47:05 12.8 C 9.3 g/m*3 12.8 C 0 km/h
5 14-09-2010 00:59:05 12.7 C 9.24 g/m*3 12.7 C 0 km/h
6 14-09-2010 01:11:05 12.6 C 9.18 g/m*3 12.6 C 0 km/h
7 14-09-2010 01:23:05 12.7 C 9.24 g/m*3 12.7 C 0 km/h
8 14-09-2010 01:35:05 12.8 C 9.3 g/m*3 12.8 C 0 km/h
9 14-09-2010 01:47:05 12.9 C 9.35 g/m*3 12.9 C 0 km/h
10 14-09-2010 01:59:05 13 C 9.3 g/m*3 13 C 0 km/h
11 14-09-2010 02:11:05 13 C 9.3 g/m*3 13 C 0 km/h
12 14-09-2010 02:23:05 13 C 9.3 g/m*3 13 C 0 km/h
13 14-09-2010 02:35:06 13.1 C 9.36 g/m*3 13.1 C 0 km/h
14 14-09-2010 02:47:06 13.2 C 9.42 g/m*3 13.2 C 0 km/h
15 14-09-2010 02:59:06 13.2 C 9.3 g/m*3 13.2 C 0 km/h
16 14-09-2010 03:11:06 13.4 C 9.18 g/m*3 13.4 C 0 km/h
17 14-09-2010 03:23:06 13.4 C 9.18 g/m*3 13.4 C 0 km/h
18 14-09-2010 03:35:06 13.3 C 9.24 g/m*3 13.3 C 0 km/h
19 14-09-2010 03:47:06 13.3 C 9.24 g/m*3 13.3 C 0 km/h
20 14-09-2010 03:59:06 13.4 C 9.3 g/m*3 13.4 C 0 km/h
21 14-09-2010 04:11:06 13.2 C 9.19 g/m*3 13.2 C 0 km/h
22 14-09-2010 04:23:06 13 C 9.3 g/m*3 13 C 0 km/h
23 14-09-2010 04:35:06 12.8 C 9.41 g/m*3 12.8 C 0 km/h
24 14-09-2010 04:47:06 12.9 C 9.58 g/m*3 12.9 C 0 km/h
25 14-09-2010 04:59:06 12.8 C 9.63 g/m*3 12.8 C 0 km/h
Sensor: Nr:Datum:Temp:Abs-Feuchte:Windchill:Wind:
Aussen-T/F 26 14-09-2010 05:11:06 12.9 C 9.81 g/m*3 12.9 C 0 km/h
27 14-09-2010 05:23:06 12.9 C 9.81 g/m*3 12.9 C 0 km/h
28 14-09-2010 05:35:06 13 C 9.87 g/m*3 13 C 0 km/h
29 14-09-2010 05:47:06 13 C 9.87 g/m*3 13 C 0 km/h
30 14-09-2010 05:59:06 13 C 9.87 g/m*3 13 C 0 km/h
31 14-09-2010 06:11:06 13.3 C 10.05 g/m*3 13.3 C 0 km/h
32 14-09-2010 06:23:06 13.5 C 9.83 g/m*3 13.5 C 0 km/h
33 14-09-2010 06:35:06 13.8 C 9.06 g/m*3 13.8 C 0 km/h
34 14-09-2010 06:47:06 14.5 C 8.83 g/m*3 14.5 C 0 km/h
35 14-09-2010 06:59:07 14.4 C 8.53 g/m*3 14.4 C 0 km/h
36 14-09-2010 07:11:07 14.4 C 8.53 g/m*3 14.4 C 0 km/h
37 14-09-2010 07:23:07 14.4 C 8.65 g/m*3 14.4 C 0 km/h
38 14-09-2010 07:35:04 14.3 C 8.85 g/m*3 14.3 C 0 km/h
39 14-09-2010 07:47:02 13.6 C 9.18 g/m*3 13.6 C 0 km/h
40 14-09-2010 07:59:02 13.6 C 9.42 g/m*3 13.6 C 0 km/h
41 14-09-2010 08:11:01 13.7 C 9.47 g/m*3 13.7 C 0 km/h
42 14-09-2010 08:23:02 13.7 C 9.47 g/m*3 13.7 C 0 km/h
43 14-09-2010 08:35:02 14.1 C 9.34 g/m*3 14.1 C 0 km/h
44 14-09-2010 08:47:02 14.4 C 9.15 g/m*3 14.4 C 0 km/h
45 14-09-2010 08:59:02 14.6 C 9.13 g/m*3 14.6 C 0 km/h
46 14-09-2010 09:11:01 14.7 C 9.07 g/m*3 14.7 C 0 km/h
47 14-09-2010 09:23:02 14.8 C 9.12 g/m*3 14.8 C 0 km/h
48 14-09-2010 09:35:02 15.1 C 9.03 g/m*3 15.1 C 0 km/h
49 14-09-2010 09:47:01 15.6 C 9.04 g/m*3 15.6 C 0 km/h
50 14-09-2010 09:59:01 15.6 C 9.04 g/m*3 15.6 C 0 km/h
Sensor: Nr:Datum:Temp:Abs-Feuchte:Windchill:Wind:
Aussen-T/F 51 14-09-2010 10:11:02 15.6 C 9.04 g/m*3 15.6 C 0 km/h
52 14-09-2010 10:23:01 15.7 C 9.1 g/m*3 15.7 C 0 km/h
53 14-09-2010 10:35:01 16 C 8.99 g/m*3 16 C 0 km/h
54 14-09-2010 10:47:01 16.4 C 8.93 g/m*3 16.4 C 0 km/h
55 14-09-2010 10:59:01 16.8 C 9.29 g/m*3 16.8 C 0 km/h
56 14-09-2010 11:11:02 17 C 8.97 g/m*3 17 C 0 km/h
57 14-09-2010 11:23:01 17.1 C 9.03 g/m*3 17.1 C 0 km/h
58 14-09-2010 11:35:01 17 C 9.12 g/m*3 17 C 0 km/h
59 14-09-2010 11:47:01 16.7 C 9.24 g/m*3 16.7 C 0 km/h
60 14-09-2010 11:59:01 17.5 C 9.39 g/m*3 17.5 C 0 km/h
61 14-09-2010 12:11:02 17.8 C 9.26 g/m*3 17.8 C 0 km/h
62 14-09-2010 12:23:02 18.2 C 9.01 g/m*3 18.2 C 0 km/h
63 14-09-2010 12:35:01 18.5 C 9.18 g/m*3 18.5 C 0 km/h
64 14-09-2010 12:47:02 18.8 C 9.18 g/m*3 18.8 C 0 km/h
65 14-09-2010 12:59:02 18.9 C 9.23 g/m*3 18.9 C 0 km/h
66 14-09-2010 13:11:01 19.6 C 9.28 g/m*3 19.6 C 0 km/h
67 14-09-2010 13:23:01 19.7 C 9.34 g/m*3 19.7 C 0 km/h
68 14-09-2010 13:35:01 20.2 C 9.44 g/m*3 20.2 C 0 km/h
69 14-09-2010 13:47:02 20.4 C 9.02 g/m*3 20.4 C 0 km/h
70 14-09-2010 13:59:02 20 C 8.99 g/m*3 20 C 0 km/h
71 14-09-2010 14:11:02 19.7 C 8.83 g/m*3 19.7 C 0 km/h
72 14-09-2010 14:23:02 19.7 C 9 g/m*3 19.7 C 0 km/h
73 14-09-2010 14:35:02 19.8 C 8.71 g/m*3 19.8 C 0 km/h
74 14-09-2010 14:47:01 19.6 C 8.78 g/m*3 19.6 C 0 km/h
75 14-09-2010 14:59:01 19.5 C 8.89 g/m*3 19.5 C 0 km/h
Sensor: Nr:Datum:Temp:Abs-Feuchte:Windchill:Wind:
Aussen-T/F 76 14-09-2010 15:11:02 20 C 8.81 g/m*3 20 C 0 km/h
77 14-09-2010 15:23:01 20 C 8.64 g/m*3 20 C 0 km/h
78 14-09-2010 15:35:02 20.4 C 8.67 g/m*3 20.4 C 0 km/h
79 14-09-2010 15:47:01 20.7 C 8.46 g/m*3 20.7 C 0 km/h
80 14-09-2010 15:59:01 20.9 C 8.56 g/m*3 20.9 C 0 km/h
81 14-09-2010 16:11:02 20.8 C 8.15 g/m*3 20.8 C 0 km/h
82 14-09-2010 16:23:01 20.9 C 8.2 g/m*3 20.9 C 0 km/h
83 14-09-2010 16:35:02 20.6 C 7.7 g/m*3 20.6 C 0 km/h
84 14-09-2010 16:47:01 20.6 C 7.7 g/m*3 20.6 C 0 km/h
85 14-09-2010 16:59:01 20.5 C 7.65 g/m*3 20.5 C 0 km/h
86 14-09-2010 17:11:02 20.5 C 7.47 g/m*3 20.5 C 0 km/h
87 14-09-2010 17:23:01 20.4 C 7.43 g/m*3 20.4 C 0 km/h
88 14-09-2010 17:35:01 20 C 7.26 g/m*3 20 C 0 km/h
89 14-09-2010 17:47:01 20 C 7.43 g/m*3 20 C 0 km/h
90 14-09-2010 17:59:01 19.8 C 7.69 g/m*3 19.8 C 0 km/h
91 14-09-2010 18:11:01 19.6 C 7.77 g/m*3 19.6 C 0 km/h
92 14-09-2010 18:23:02 19.4 C 7.84 g/m*3 19.4 C 0 km/h
93 14-09-2010 18:35:01 19.3 C 7.8 g/m*3 19.3 C 0 km/h
94 14-09-2010 18:47:02 19.3 C 7.8 g/m*3 19.3 C 0 km/h
95 14-09-2010 18:59:02 19.1 C 7.87 g/m*3 19.1 C 0 km/h
96 14-09-2010 19:11:01 19 C 7.82 g/m*3 19 C 0 km/h
97 14-09-2010 19:23:01 18.9 C 7.78 g/m*3 18.9 C 0 km/h
98 14-09-2010 19:35:01 18.7 C 7.68 g/m*3 18.7 C 0 km/h
99 14-09-2010 19:47:02 18.7 C 7.68 g/m*3 18.7 C 0 km/h
100 14-09-2010 19:59:03 18.7 C 7.68 g/m*3 18.7 C 0 km/h
Sensor: Nr:Datum:Temp:Abs-Feuchte:Windchill:Wind:
Aussen-T/F 101 14-09-2010 20:11:01 18.7 C 7.68 g/m*3 18.7 C 0 km/h
102 14-09-2010 20:23:02 18.6 C 7.64 g/m*3 18.6 C 0 km/h
103 14-09-2010 20:35:02 18.7 C 7.68 g/m*3 18.7 C 0 km/h
104 14-09-2010 20:47:02 18.5 C 7.75 g/m*3 18.5 C 0 km/h
105 14-09-2010 20:59:02 18.5 C 7.75 g/m*3 18.5 C 0 km/h
106 14-09-2010 21:11:03 18.5 C 7.75 g/m*3 18.5 C 0 km/h
107 14-09-2010 21:23:02 18.5 C 7.75 g/m*3 18.5 C 0 km/h
108 14-09-2010 21:35:02 18.6 C 7.96 g/m*3 18.6 C 0 km/h
109 14-09-2010 21:47:01 18.5 C 7.75 g/m*3 18.5 C 0 km/h
110 14-09-2010 21:59:01 18.6 C 7.64 g/m*3 18.6 C 0 km/h
111 14-09-2010 22:12:03 18.6 C 7.8 g/m*3 18.6 C 0 km/h
112 14-09-2010 22:24:03 18.5 C 7.75 g/m*3 18.5 C 0 km/h
113 14-09-2010 22:36:03 18.4 C 7.86 g/m*3 18.4 C 0 km/h
114 14-09-2010 22:48:03 18.5 C 7.91 g/m*3 18.5 C 0 km/h
115 14-09-2010 23:00:03 18.5 C 7.91 g/m*3 18.5 C 0 km/h
116 14-09-2010 23:12:03 18.4 C 7.86 g/m*3 18.4 C 0 km/h
117 14-09-2010 23:24:03 18.2 C 7.77 g/m*3 18.2 C 0 km/h
118 14-09-2010 23:36:04 18 C 7.99 g/m*3 18 C 0 km/h
119 14-09-2010 23:48:04 18 C 7.99 g/m*3 18 C 0 km/h
120 15-09-2010 00:00:04 18 C 7.99 g/m*3 18 C 0 km/h
121 15-09-2010 00:12:04 18 C 7.83 g/m*3 18 C 0 km/h
122 15-09-2010 00:24:04 18 C 7.83 g/m*3 18 C 0 km/h
123 15-09-2010 00:36:04 18 C 7.83 g/m*3 18 C 0 km/h
124 15-09-2010 00:48:04 18.1 C 7.88 g/m*3 18.1 C 0 km/h
125 15-09-2010 01:00:04 18.1 C 7.73 g/m*3 18.1 C 0 km/h
Sensor: Nr:Datum:Temp:Abs-Feuchte:Windchill:Wind:
Aussen-T/F 126 15-09-2010 01:12:04 18.1 C 7.73 g/m*3 18.1 C 0 km/h
127 15-09-2010 01:24:04 18.2 C 7.62 g/m*3 18.2 C 0 km/h
128 15-09-2010 01:36:04 18.3 C 7.66 g/m*3 18.3 C 0 km/h
129 15-09-2010 01:48:04 18.2 C 7.62 g/m*3 18.2 C 0 km/h
130 15-09-2010 02:00:04 18.3 C 7.66 g/m*3 18.3 C 0 km/h
131 15-09-2010 02:12:04 18.4 C 7.55 g/m*3 18.4 C 0 km/h
132 15-09-2010 02:24:04 18.4 C 7.55 g/m*3 18.4 C 0 km/h
133 15-09-2010 02:36:05 18.3 C 7.66 g/m*3 18.3 C 0 km/h
134 15-09-2010 02:48:05 18.2 C 7.77 g/m*3 18.2 C 0 km/h
135 15-09-2010 03:00:05 18.2 C 7.93 g/m*3 18.2 C 0 km/h
136 15-09-2010 03:12:05 18.1 C 8.03 g/m*3 18.1 C 0 km/h
137 15-09-2010 03:24:05 18 C 8.29 g/m*3 18 C 0 km/h
138 15-09-2010 03:36:05 18 C 8.45 g/m*3 18 C 0 km/h
139 15-09-2010 03:48:05 18 C 8.45 g/m*3 18 C 0 km/h
140 15-09-2010 04:00:05 17.9 C 8.7 g/m*3 17.9 C 0 km/h
141 15-09-2010 04:12:05 17.9 C 9.01 g/m*3 17.9 C 0 km/h
142 15-09-2010 04:24:05 17.7 C 9.05 g/m*3 17.7 C 0 km/h
143 15-09-2010 04:36:05 17.6 C 9.3 g/m*3 17.6 C 0 km/h
144 15-09-2010 04:48:05 17.4 C 9.48 g/m*3 17.4 C 0 km/h
145 15-09-2010 05:00:05 17.4 C 9.48 g/m*3 17.4 C 0 km/h
146 15-09-2010 05:12:05 16.9 C 10.07 g/m*3 16.9 C 0 km/h
147 15-09-2010 05:24:05 14.4 C 9.27 g/m*3 14.4 C 0 km/h
148 15-09-2010 05:36:05 13.3 C 9.7 g/m*3 13.3 C 0 km/h
149 15-09-2010 05:48:05 13 C 9.87 g/m*3 13 C 0 km/h
150 15-09-2010 06:00:05 12.9 C 10.03 g/m*3 12.9 C 0 km/h
Sensor: Nr:Datum:Temp:Abs-Feuchte:Windchill:Wind:
Aussen-T/F 151 15-09-2010 06:12:05 12.8 C 10.08 g/m*3 12.8 C 0 km/h
152 15-09-2010 06:24:05 12.7 C 10.02 g/m*3 12.7 C 0 km/h
153 15-09-2010 06:36:05 12.7 C 10.13 g/m*3 12.7 C 0 km/h
154 15-09-2010 06:48:05 12.8 C 10.19 g/m*3 12.8 C 0 km/h
155 15-09-2010 07:00:06 12.8 C 10.3 g/m*3 12.8 C 0 km/h
156 15-09-2010 07:12:06 12.7 C 10.24 g/m*3 12.7 C 0 km/h
157 15-09-2010 07:24:06 12.7 C 10.24 g/m*3 12.7 C 0 km/h
158 15-09-2010 07:36:03 12.8 C 10.3 g/m*3 12.8 C 0 km/h
159 15-09-2010 07:48:02 12.7 C 10.35 g/m*3 12.7 C 0 km/h
160 15-09-2010 08:00:02 12.6 C 10.29 g/m*3 12.6 C 0 km/h
161 15-09-2010 08:12:02 12.7 C 10.35 g/m*3 12.7 C 0 km/h
162 15-09-2010 08:24:02 12.7 C 10.35 g/m*3 12.7 C 0 km/h
163 15-09-2010 08:36:01 12.8 C 10.42 g/m*3 12.8 C 0 km/h
164 15-09-2010 08:48:02 12.7 C 10.35 g/m*3 12.7 C 0 km/h
165 15-09-2010 09:00:02 12.5 C 10.22 g/m*3 12.5 C 0 km/h
166 15-09-2010 09:12:01 12.7 C 10.35 g/m*3 12.7 C 0 km/h
167 15-09-2010 09:24:01 12.7 C 10.24 g/m*3 12.7 C 0 km/h
168 15-09-2010 09:36:02 13.1 C 10.38 g/m*3 13.1 C 0 km/h
169 15-09-2010 09:48:02 13.6 C 10.59 g/m*3 13.6 C 0 km/h
170 15-09-2010 10:00:02 14 C 10.49 g/m*3 14 C 0 km/h
171 15-09-2010 10:12:02 14 C 10.01 g/m*3 14 C 0 km/h
172 15-09-2010 10:24:02 14.1 C 9.95 g/m*3 14.1 C 0 km/h
173 15-09-2010 10:36:02 14.1 C 9.71 g/m*3 14.1 C 0 km/h
174 15-09-2010 10:48:02 14.1 C 9.59 g/m*3 14.1 C 0 km/h
175 15-09-2010 11:00:02 14.2 C 9.52 g/m*3 14.2 C 0 km/h
Sensor: Nr:Datum:Temp:Abs-Feuchte:Windchill:Wind:
Aussen-T/F 176 15-09-2010 11:12:02 14.6 C 9.01 g/m*3 14.6 C 0 km/h
177 15-09-2010 11:24:02 15 C 8.72 g/m*3 15 C 0 km/h
178 15-09-2010 11:36:02 15.6 C 8.51 g/m*3 15.6 C 0 km/h
179 15-09-2010 11:48:01 15.7 C 8.43 g/m*3 15.7 C 0 km/h
180 15-09-2010 12:00:01 16.2 C 7.31 g/m*3 16.2 C 0 km/h
181 15-09-2010 12:12:01 16.4 C 7.4 g/m*3 16.4 C 0 km/h
182 15-09-2010 12:24:01 17.2 C 7.18 g/m*3 17.2 C 0 km/h
183 15-09-2010 12:36:01 16.6 C 7.06 g/m*3 16.6 C 0 km/h
184 15-09-2010 12:48:02 16.1 C 6.17 g/m*3 16.1 C 0 km/h
185 15-09-2010 13:00:02 16.1 C 6.44 g/m*3 16.1 C 0 km/h
186 15-09-2010 13:12:02 16.4 C 6.7 g/m*3 16.4 C 0 km/h
187 15-09-2010 13:24:02 17.4 C 6.52 g/m*3 17.4 C 0 km/h
188 15-09-2010 13:36:02 17.9 C 5.95 g/m*3 17.9 C 0 km/h
189 15-09-2010 13:48:02 18.4 C 5.82 g/m*3 18.4 C 0 km/h
190 15-09-2010 14:00:02 18.5 C 5.7 g/m*3 18.5 C 0 km/h
191 15-09-2010 14:12:02 18.1 C 5.87 g/m*3 18.1 C 0 km/h
192 15-09-2010 14:24:02 18.5 C 5.54 g/m*3 18.5 C 0 km/h
193 15-09-2010 14:36:02 18.3 C 5.47 g/m*3 18.3 C 0 km/h
194 15-09-2010 14:48:02 18.5 C 5.7 g/m*3 18.5 C 0 km/h
195 15-09-2010 15:00:03 19.5 C 5.87 g/m*3 19.5 C 0 km/h
196 15-09-2010 15:12:01 19.6 C 5.4 g/m*3 19.6 C 0 km/h
197 15-09-2010 15:24:01 19.3 C 5.64 g/m*3 19.3 C 0 km/h
198 15-09-2010 15:36:02 19.2 C 5.94 g/m*3 19.2 C 0 km/h
199 15-09-2010 15:48:02 20 C 5.88 g/m*3 20 C 0 km/h
200 15-09-2010 16:00:02 19.6 C 5.91 g/m*3 19.6 C 0 km/h
Sensor: Nr:Datum:Temp:Abs-Feuchte:Windchill:Wind:
Aussen-T/F 201 15-09-2010 16:12:02 19.6 C 5.91 g/m*3 19.6 C 0 km/h
202 15-09-2010 16:24:02 19.3 C 5.97 g/m*3 19.3 C 0 km/h
203 15-09-2010 16:36:02 19.6 C 6.08 g/m*3 19.6 C 0 km/h
204 15-09-2010 16:48:02 19.5 C 6.04 g/m*3 19.5 C 0 km/h
205 15-09-2010 17:00:02 20.4 C 5.84 g/m*3 20.4 C 0 km/h
206 15-09-2010 17:12:02 19 C 5.7 g/m*3 19 C 0 km/h
207 15-09-2010 17:24:02 19.4 C 6.01 g/m*3 19.4 C 0 km/h
208 15-09-2010 17:36:02 19.9 C 5.84 g/m*3 19.9 C 0 km/h
209 15-09-2010 17:48:02 19.7 C 5.6 g/m*3 19.7 C 0 km/h
210 15-09-2010 18:00:02 18.7 C 5.44 g/m*3 18.7 C 0 km/h
211 15-09-2010 18:12:02 18.2 C 5.28 g/m*3 18.2 C 0 km/h
212 15-09-2010 18:24:03 17.5 C 5.22 g/m*3 17.5 C 0 km/h
213 15-09-2010 18:36:02 17.7 C 5.28 g/m*3 17.7 C 0 km/h
214 15-09-2010 18:48:02 17.1 C 5.39 g/m*3 17.1 C 0 km/h
215 15-09-2010 19:00:02 16.9 C 5.61 g/m*3 16.9 C 0 km/h
216 15-09-2010 19:12:02 16.7 C 5.4 g/m*3 16.7 C 0 km/h
217 15-09-2010 19:24:02 16.6 C 5.65 g/m*3 16.6 C 0 km/h
218 15-09-2010 19:36:02 16.4 C 5.72 g/m*3 16.4 C 0 km/h
219 15-09-2010 19:48:02 16.4 C 5.86 g/m*3 16.4 C 0 km/h
220 15-09-2010 20:00:02 16.2 C 6.07 g/m*3 16.2 C 0 km/h
221 15-09-2010 20:12:02 16 C 6.27 g/m*3 16 C 0 km/h
222 15-09-2010 20:24:02 15.8 C 6.46 g/m*3 15.8 C 0 km/h
223 15-09-2010 20:36:01 15.7 C 6.15 g/m*3 15.7 C 0 km/h
224 15-09-2010 20:48:02 15.5 C 6.34 g/m*3 15.5 C 0 km/h
225 15-09-2010 21:00:03 15.4 C 6.31 g/m*3 15.4 C 0 km/h
Sensor: Nr:Datum:Temp:Abs-Feuchte:Windchill:Wind:
Aussen-T/F 226 15-09-2010 21:12:01 15.2 C 6.49 g/m*3 15.2 C 0 km/h
227 15-09-2010 21:24:01 15 C 6.41 g/m*3 15 C 0 km/h
228 15-09-2010 21:37:02 15.1 C 6.32 g/m*3 15.1 C 0 km/h
229 15-09-2010 21:49:02 15.2 C 6.36 g/m*3 15.2 C 0 km/h
230 15-09-2010 22:01:02 15.1 C 6.32 g/m*3 15.1 C 0 km/h
231 15-09-2010 22:13:02 15.1 C 6.06 g/m*3 15.1 C 0 km/h
232 15-09-2010 22:25:02 14.9 C 5.86 g/m*3 14.9 C 0 km/h
233 15-09-2010 22:37:02 14.8 C 5.83 g/m*3 14.8 C 0 km/h
234 15-09-2010 22:49:02 14.9 C 5.74 g/m*3 14.9 C 0 km/h
235 15-09-2010 23:01:02 15 C 5.51 g/m*3 15 C 0 km/h
236 15-09-2010 23:13:02 15 C 5.51 g/m*3 15 C 0 km/h
237 15-09-2010 23:25:02 14.9 C 5.74 g/m*3 14.9 C 0 km/h
238 15-09-2010 23:37:02 14.8 C 5.7 g/m*3 14.8 C 0 km/h
239 15-09-2010 23:49:02 14.6 C 5.76 g/m*3 14.6 C 0 km/h

Legende:
   Min
   Max


Maximal/Minimal-Werte vom 23.02.2003 - 30.09.2020

Sensor Min Max Avg
Temp
(Aussen-T/F)
-16.4 °C
20-12-2009  01:30:01
40.4 °C
25-07-2019  16:20:00
11.32 °C

Die Daten stammen von einer Davis Vantage Pro 2 Wetter-Station und werden unter Linux mit der Software wview2wettercgi und aufbereitet. Alle Angaben erfolgen ohne Gewähr für ihre Vollständigkeit oder Richtigkeit.
Kontakt: Rainer Krienke krienke@uni-koblenz.de . Meine Webseiten an der Uni Koblenz oder privat.
Version: $Revision: 0.78 $